Airfield :







YOU CAN JOIN US ON...

 
LOGIN :

Register | Disclaimer

   EN    FR    IT 

 









Legend :    VFR   Marginal VFR   IFR   Intensive IFR   Very Intensive IFR
Visi :
Ceiling :
>= 8 km
>= 3000ft
5 to 8 km
1000 to 3000 ft
1500m to 5 km
500 to 1000 ft
800 to 1500m
200 to 500 ft
< 800m
< 200 ft
Symbols :   Thunderstorms  Fog  Heavy snow  Heavy precipitations  Wind > 20 kt






- Airport Elevation : 26 ft
- IATA code : CAY


SOCA - Rochambeau

CURRENT METAR :
  • 221700Z AUTO 08009KT 060V120 9999 FEW034/// SCT045/// 33/23 Q1010 TEMPO 3000 SHRA FEW018CB SCT020TCU

EXPIRED METARs :
  • 221630Z AUTO 07012KT 9999 FEW033/// 33/23 Q1010 TEMPO 3000 SHRA FEW018CB SCT020TCU
  • 221600Z AUTO 07012KT 040V110 9999 FEW034/// 32/23 Q1011 TEMPO 3000 SHRA FEW018CB SCT020TCU
  • 221530Z AUTO 06014KT 9999 FEW032/// SCT088/// 33/24 Q1012 TEMPO 3000 SHRA FEW018CB SCT020TCU
  • 221500Z AUTO 06013KT 9999 FEW029/// SCT058/// 32/24 Q1012 TEMPO 3000 SHRA FEW018CB SCT020TCU
  • 221430Z AUTO 06009KT 040V100 9999 SCT031/// BKN037/// 32/24 Q1012 TEMPO 3000 SHRA FEW018CB SCT020TCU

TAF TAF SOCA
Valid from the 22 at 12:00 until the 23 at 12:00 UTC


221000Z 2212/2312 VRB02KT 9999 SCT023
TEMPO 2212/2214 3000 SHRA SCT018TCU
FM221200 07012KT 9999 BKN030
PROB30
TEMPO 2215/2218 3000 SHRA FEW018CB SCT020TCU
FM222300 VRB02KT CAVOK
FM231000 VRB02KT 9999 SCT020
SOOO FIR / South America



MET'MAP, your aeronautical weather chart ! - Copyright ORBIFLY December 2007 - Disclaimer

ORBIFLY MET'MAP TEAM :

Programming & Development : Alexandra Zaïnal
Concept & original design : Baudouin d'Aumeries
Assistance for programming : Marc-Olivier Méhu
Technical & hardware support : Manuel Goepfert

Contact : metmap@orbifly.com




SOURCES & CREDITS :

   NOAA